Time;durP1;ratioP1;P1;durP2;ratioP2;P2;SDS_P1;SDS_P2;PMS_P1;PMS_P2;Temp;Humidity;BMP_temperature;BMP_pressure;BME280_temperature;BME280_humidity;BME280_pressure;Samples;Min_cycle;Max_cycle;Signal;HPM_P1;HPM_P2
2022/01/08 00:01:48;;;;;;;;;70.00;59.00;;;;;;;;5115927;28;8821;-80
2022/01/08 00:04:13;;;;;;;;;59.25;50.75;;;;;;;;5115951;28;8833;-80
2022/01/08 00:06:39;;;;;;;;;65.33;56.00;;;;;;;;5115325;27;9627;-79
2022/01/08 00:09:04;;;;;;;;;61.00;52.33;;;;;;;;5115645;28;8861;-79
2022/01/08 00:11:29;;;;;;;;;54.00;47.75;;;;;;;;5116009;28;11512;-80
2022/01/08 00:13:58;;;;;;;;;72.00;61.00;;;;;;;;5115470;28;8813;-79
2022/01/08 00:16:26;;;;;;;;;62.50;53.75;;;;;;;;5115764;28;9867;-79
2022/01/08 00:18:52;;;;;;;;;70.75;59.50;;;;;;;;5115285;28;8753;-79
2022/01/08 00:21:20;;;;;;;;;58.25;50.75;;;;;;;;5115534;28;9559;-79
2022/01/08 00:23:45;;;;;;;;;58.00;50.50;;;;;;;;5095621;28;8809;-79
2022/01/08 00:26:11;;;;;;;;;55.33;49.00;;;;;;;;5115343;28;8852;-79
2022/01/08 00:28:39;;;;;;;;;48.75;45.00;;;;;;;;5097064;28;8874;-79
2022/01/08 00:31:04;;;;;;;;;41.25;40.50;;;;;;;;5115325;28;8830;-79
2022/01/08 00:33:29;;;;;;;;;48.50;44.75;;;;;;;;5115432;28;8797;-79
2022/01/08 00:35:55;;;;;;;;;37.67;37.67;;;;;;;;5114713;28;8824;-79
2022/01/08 00:38:20;;;;;;;;;60.00;51.67;;;;;;;;5096893;28;11564;-79
2022/01/08 00:40:45;;;;;;;;;67.75;58.25;;;;;;;;5114755;28;8825;-79
2022/01/08 00:43:10;;;;;;;;;58.00;50.50;;;;;;;;5115427;28;8797;-79
2022/01/08 00:45:36;;;;;;;;;54.50;48.00;;;;;;;;5095323;28;8820;-79
2022/01/08 00:48:01;;;;;;;;;63.75;54.00;;;;;;;;5114619;28;8809;-80
2022/01/08 00:50:30;;;;;;;;;46.67;44.00;;;;;;;;5096477;28;8840;-79
2022/01/08 00:52:55;;;;;;;;;43.67;42.33;;;;;;;;5114468;28;11421;-80
2022/01/08 00:55:21;;;;;;;;;53.00;48.00;;;;;;;;5114591;28;11506;-80
2022/01/08 00:57:46;;;;;;;;;67.50;57.00;;;;;;;;5114608;28;8817;-80
2022/01/08 01:00:12;;;;;;;;;49.25;45.50;;;;;;;;5114776;28;8812;-80
2022/01/08 01:02:45;;;;;;;;;61.75;53.25;;;;;;;;5115044;28;8785;-80
2022/01/08 01:05:11;;;;;;;;;58.50;50.75;;;;;;;;5114402;27;8886;-80
2022/01/08 01:07:36;;;;;;;;;55.67;49.33;;;;;;;;5114626;28;8808;-80
2022/01/08 01:10:02;;;;;;;;;53.00;48.00;;;;;;;;5114738;28;8884;-80
2022/01/08 01:12:27;;;;;;;;;59.80;51.80;;;;;;;;5115001;28;8792;-80
2022/01/08 01:14:53;;;;;;;;;64.25;55.25;;;;;;;;5114257;28;8895;-80
2022/01/08 01:17:18;;;;;;;;;50.25;46.25;;;;;;;;5114947;28;8832;-79
2022/01/08 01:19:48;;;;;;;;;55.50;49.00;;;;;;;;5095637;28;8855;-79
2022/01/08 01:22:19;;;;;;;;;71.25;61.00;;;;;;;;5095533;28;9612;-79
2022/01/08 01:24:46;;;;;;;;;59.40;51.60;;;;;;;;5113994;28;8777;-79
2022/01/08 01:28:20;;;;;;;;;64.50;55.00;;;;;;;;5114437;28;8883;-79
2022/01/08 01:30:25;;;;;;;;;56.25;49.50;;;;;;;;5096238;28;8913;-79
2022/01/08 01:49:17;;;;;;;;;96.50;85.75;;;;;;;;5114190;28;8773;-79
2022/01/08 01:51:43;;;;;;;;;90.00;77.50;;;;;;;;5094653;28;8917;-79
2022/01/08 01:54:08;;;;;;;;;87.00;72.00;;;;;;;;5095723;28;8874;-79
2022/01/08 01:56:34;;;;;;;;;82.00;68.00;;;;;;;;5113355;28;8796;-79
2022/01/08 01:58:59;;;;;;;;;89.25;76.50;;;;;;;;5113655;28;8793;-79
2022/01/08 02:01:24;;;;;;;;;91.67;77.33;;;;;;;;5114214;28;8881;-79
2022/01/08 02:03:53;;;;;;;;;79.00;65.67;;;;;;;;5113714;28;8895;-79
2022/01/08 02:06:19;;;;;;;;;96.60;87.20;;;;;;;;5113525;27;8870;-79
2022/01/08 02:08:45;;;;;;;;;82.25;68.75;;;;;;;;5095447;28;9018;-79
2022/01/08 02:11:11;;;;;;;;;89.67;75.67;;;;;;;;5113926;28;8801;-79
2022/01/08 02:13:37;;;;;;;;;97.75;87.50;;;;;;;;5113757;28;11538;-79
2022/01/08 02:16:06;;;;;;;;;92.00;79.00;;;;;;;;5113358;28;8813;-79
2022/01/08 02:18:34;;;;;;;;;99.00;91.50;;;;;;;;5113657;28;8796;-79
2022/01/08 02:21:02;;;;;;;;;84.00;70.50;;;;;;;;5113088;28;8785;-79
2022/01/08 02:23:28;;;;;;;;;97.50;86.50;;;;;;;;5112730;28;8895;-79
2022/01/08 02:26:07;;;;;;;;;85.00;70.67;;;;;;;;5094407;28;8887;-79
2022/01/08 02:28:32;;;;;;;;;88.25;74.50;;;;;;;;5113879;28;11003;-79
2022/01/08 02:31:00;;;;;;;;;98.75;88.75;;;;;;;;5113307;28;8772;-79
2022/01/08 02:33:26;;;;;;;;;93.75;81.50;;;;;;;;5095275;28;8819;-79
2022/01/08 02:35:52;;;;;;;;;92.75;79.25;;;;;;;;5112832;28;8800;-79
2022/01/08 02:38:20;;;;;;;;;101.00;93.00;;;;;;;;5113425;28;9603;-79
2022/01/08 02:40:57;;;;;;;;;99.00;90.50;;;;;;;;5112988;28;9668;-79
2022/01/08 02:43:24;;;;;;;;;111.25;107.75;;;;;;;;5095089;28;11518;-79
2022/01/08 02:45:52;;;;;;;;;108.00;105.50;;;;;;;;5112776;28;8781;-79
2022/01/08 02:48:17;;;;;;;;;118.25;117.75;;;;;;;;5110493;28;11598;-79
2022/01/08 02:50:42;;;;;;;;;110.00;108.75;;;;;;;;5112639;28;8808;-79
2022/01/08 02:53:10;;;;;;;;;103.75;99.50;;;;;;;;5112988;28;8816;-79
2022/01/08 02:55:36;;;;;;;;;114.67;113.67;;;;;;;;5113348;28;8809;-79
2022/01/08 02:58:02;;;;;;;;;116.33;116.33;;;;;;;;5112612;28;11506;-79
2022/01/08 03:00:28;;;;;;;;;102.33;95.67;;;;;;;;5113384;28;8784;-79
2022/01/08 03:02:56;;;;;;;;;110.00;110.00;;;;;;;;5112896;28;11145;-79
2022/01/08 03:05:22;;;;;;;;;103.20;96.80;;;;;;;;5112908;27;8761;-79
2022/01/08 03:07:50;;;;;;;;;113.00;113.00;;;;;;;;5112401;28;8836;-79
2022/01/08 03:10:17;;;;;;;;;107.40;104.00;;;;;;;;5116400;28;8739;-79
2022/01/08 03:12:42;;;;;;;;;111.60;110.80;;;;;;;;5097659;28;8762;-79
2022/01/08 03:15:14;;;;;;;;;131.40;129.80;;;;;;;;5116676;28;9587;-79
2022/01/08 03:17:39;;;;;;;;;112.00;110.50;;;;;;;;5116281;28;8781;-79
2022/01/08 03:20:12;;;;;;;;;108.25;106.75;;;;;;;;5116396;28;9752;-79
2022/01/08 03:22:38;;;;;;;;;111.75;110.50;;;;;;;;5097428;28;8886;-79
2022/01/08 03:25:07;;;;;;;;;127.80;127.80;;;;;;;;5116139;28;11461;-79
2022/01/08 03:27:32;;;;;;;;;134.00;133.60;;;;;;;;5116499;28;8785;-79
2022/01/08 03:30:01;;;;;;;;;106.00;102.25;;;;;;;;5116012;28;8832;-79
2022/01/08 03:32:26;;;;;;;;;134.80;134.40;;;;;;;;5116139;28;8823;-79
2022/01/08 03:34:52;;;;;;;;;128.00;127.00;;;;;;;;5115987;28;8796;-79
2022/01/08 03:37:17;;;;;;;;;144.80;144.20;;;;;;;;5115326;28;8836;-79
2022/01/08 03:39:43;;;;;;;;;136.20;136.20;;;;;;;;5115770;28;8801;-79
2022/01/08 03:42:08;;;;;;;;;131.40;131.40;;;;;;;;5115881;28;8931;-79
2022/01/08 03:44:34;;;;;;;;;136.40;136.40;;;;;;;;5115831;28;8817;-79
2022/01/08 03:47:22;;;;;;;;;144.40;144.40;;;;;;;;5115207;28;8860;-79
2022/01/08 03:49:44;;;;;;;;;133.00;133.00;;;;;;;;5115323;28;9686;-79
2022/01/08 03:52:12;;;;;;;;;123.40;120.80;;;;;;;;5115209;28;8834;-79
2022/01/08 03:54:37;;;;;;;;;121.80;120.40;;;;;;;;5115867;28;8777;-79
2022/01/08 03:57:03;;;;;;;;;118.40;117.40;;;;;;;;5115145;28;8809;-79
2022/01/08 03:59:28;;;;;;;;;117.50;114.83;;;;;;;;5115914;28;8808;-80
2022/01/08 04:01:54;;;;;;;;;112.80;105.80;;;;;;;;5115259;28;8896;-79
2022/01/08 04:04:22;;;;;;;;;101.60;94.00;;;;;;;;5115673;28;8896;-79
2022/01/08 04:06:49;;;;;;;;;92.83;82.17;;;;;;;;5114694;27;8870;-79
2022/01/08 04:09:16;;;;;;;;;89.00;75.40;;;;;;;;5116038;28;8908;-79
2022/01/08 04:11:41;;;;;;;;;92.75;80.25;;;;;;;;5115089;28;9639;-79
2022/01/08 04:14:07;;;;;;;;;89.00;75.50;;;;;;;;5115740;28;8785;-79
2022/01/08 04:16:35;;;;;;;;;79.50;65.75;;;;;;;;5115264;28;8840;-79
2022/01/08 04:19:01;;;;;;;;;83.40;69.80;;;;;;;;5115333;28;9757;-79
2022/01/08 04:21:59;;;;;;;;;59.33;51.33;;;;;;;;5114854;28;8796;-79
2022/01/08 04:24:17;;;;;;;;;67.00;57.50;;;;;;;;5114811;28;8877;-79
2022/01/08 04:26:43;;;;;;;;;80.50;67.25;;;;;;;;5114916;28;8840;-79
2022/01/08 04:29:10;;;;;;;;;78.00;65.67;;;;;;;;5115419;28;8801;-80
2022/01/08 04:31:36;;;;;;;;;84.20;68.80;;;;;;;;5115334;28;8788;-79
2022/01/08 04:34:03;;;;;;;;;74.67;62.67;;;;;;;;5114813;28;8842;-79
2022/01/08 04:36:31;;;;;;;;;77.50;64.25;;;;;;;;5114993;28;8765;-79
2022/01/08 04:38:56;;;;;;;;;78.20;65.20;;;;;;;;5114890;28;9695;-79
2022/01/08 04:41:25;;;;;;;;;68.50;58.75;;;;;;;;5115468;28;8847;-79
2022/01/08 04:43:50;;;;;;;;;70.60;58.80;;;;;;;;5114637;28;8958;-79
2022/01/08 04:46:15;;;;;;;;;75.25;63.75;;;;;;;;5115147;28;8948;-79
2022/01/08 04:48:48;;;;;;;;;79.33;66.00;;;;;;;;5114416;28;8801;-79
2022/01/08 04:51:13;;;;;;;;;96.20;86.00;;;;;;;;5114854;28;8796;-79
2022/01/08 04:53:39;;;;;;;;;89.80;77.80;;;;;;;;5114625;28;11400;-79
2022/01/08 04:56:04;;;;;;;;;98.60;88.80;;;;;;;;5114642;28;8893;-79
2022/01/08 04:58:29;;;;;;;;;110.60;107.40;;;;;;;;5114507;28;8793;-79
2022/01/08 05:00:55;;;;;;;;;117.67;114.50;;;;;;;;5114382;28;8902;-80
2022/01/08 05:03:21;;;;;;;;;128.50;127.75;;;;;;;;5114891;28;8854;-78
2022/01/08 05:05:49;;;;;;;;;117.80;115.80;;;;;;;;5113556;27;8854;-79
2022/01/08 05:08:17;;;;;;;;;120.40;117.60;;;;;;;;5113284;28;8950;-79
2022/01/08 05:10:43;;;;;;;;;119.17;115.50;;;;;;;;5114171;28;8877;-79
2022/01/08 05:13:08;;;;;;;;;106.20;100.20;;;;;;;;5114850;28;8944;-79
2022/01/08 05:15:34;;;;;;;;;102.40;94.20;;;;;;;;5114638;28;8845;-79
2022/01/08 05:18:00;;;;;;;;;104.50;97.00;;;;;;;;5095536;28;8813;-79
2022/01/08 05:20:33;;;;;;;;;94.20;81.80;;;;;;;;5114249;28;8807;-79
2022/01/08 05:23:01;;;;;;;;;97.20;87.40;;;;;;;;5113536;28;11533;-79
2022/01/08 05:25:27;;;;;;;;;89.20;76.60;;;;;;;;5114502;28;8773;-79
2022/01/08 05:27:52;;;;;;;;;103.50;95.50;;;;;;;;5113562;28;8800;-79
2022/01/08 05:30:22;;;;;;;;;114.75;112.00;;;;;;;;5114231;28;8894;-79
2022/01/08 05:32:51;;;;;;;;;120.83;117.83;;;;;;;;5094432;28;8797;-79
2022/01/08 05:35:24;;;;;;;;;132.50;131.50;;;;;;;;5114356;28;8788;-79
2022/01/08 05:37:55;;;;;;;;;150.83;150.83;;;;;;;;5111418;28;8869;-79
2022/01/08 05:40:21;;;;;;;;;182.50;181.50;;;;;;;;5113876;28;8788;-79
2022/01/08 05:42:46;;;;;;;;;201.80;201.80;;;;;;;;5113700;28;8776;-79
2022/01/08 05:45:15;;;;;;;;;220.75;220.75;;;;;;;;5113846;28;8797;-79
2022/01/08 05:47:43;;;;;;;;;227.60;227.60;;;;;;;;5113514;28;8785;-80
2022/01/08 05:50:11;;;;;;;;;248.83;248.83;;;;;;;;5113499;28;8793;-80
2022/01/08 05:52:36;;;;;;;;;209.75;209.75;;;;;;;;5113627;28;8875;-80
2022/01/08 05:55:05;;;;;;;;;186.00;186.00;;;;;;;;5113250;28;8975;-80
2022/01/08 05:57:30;;;;;;;;;134.00;130.00;;;;;;;;5113533;28;9659;-79
2022/01/08 05:59:55;;;;;;;;;115.25;111.50;;;;;;;;5094435;28;10095;-79
2022/01/08 06:02:23;;;;;;;;;93.33;81.67;;;;;;;;5095468;28;8836;-79
2022/01/08 06:04:48;;;;;;;;;87.50;74.00;;;;;;;;5113219;27;8813;-79
2022/01/08 06:07:14;;;;;;;;;87.50;73.25;;;;;;;;5113459;28;8865;-78
2022/01/08 06:09:39;;;;;;;;;71.25;60.25;;;;;;;;5113751;28;9586;-78
2022/01/08 06:12:05;;;;;;;;;62.00;52.75;;;;;;;;5113181;28;8848;-78
2022/01/08 06:14:30;;;;;;;;;60.25;52.25;;;;;;;;5095444;28;8856;-78
2022/01/08 06:16:56;;;;;;;;;66.75;56.75;;;;;;;;5113429;28;8953;-78
2022/01/08 06:19:21;;;;;;;;;67.00;57.00;;;;;;;;5113875;28;8933;-78
2022/01/08 06:21:46;;;;;;;;;63.33;54.67;;;;;;;;5094150;28;8841;-78
2022/01/08 06:24:14;;;;;;;;;60.50;52.50;;;;;;;;5113487;28;8839;-78
2022/01/08 06:26:39;;;;;;;;;51.00;43.25;;;;;;;;5095183;28;8836;-78
2022/01/08 06:29:08;;;;;;;;;61.25;52.75;;;;;;;;5113405;28;9781;-78
2022/01/08 06:31:33;;;;;;;;;56.33;48.67;;;;;;;;5112949;28;8803;-78
2022/01/08 06:33:59;;;;;;;;;64.00;54.67;;;;;;;;5103888;28;8832;-78
2022/01/08 06:36:24;;;;;;;;;71.00;58.00;;;;;;;;5113095;28;8820;-78
2022/01/08 06:38:50;;;;;;;;;60.00;51.75;;;;;;;;5112435;28;9758;-78
2022/01/08 06:41:16;;;;;;;;;74.50;62.00;;;;;;;;5095737;28;9587;-78
2022/01/08 06:43:44;;;;;;;;;47.50;43.75;;;;;;;;5113769;28;11572;-78
2022/01/08 06:46:12;;;;;;;;;67.67;56.67;;;;;;;;5098272;28;8896;-78
2022/01/08 06:48:41;;;;;;;;;73.50;61.50;;;;;;;;5117068;28;8816;-78
2022/01/08 06:51:06;;;;;;;;;72.00;60.60;;;;;;;;5114874;28;11504;-78
2022/01/08 06:53:32;;;;;;;;;68.75;57.00;;;;;;;;5116736;28;8809;-78
2022/01/08 06:55:59;;;;;;;;;72.25;61.00;;;;;;;;5099667;28;8928;-80
2022/01/08 06:58:26;;;;;;;;;73.80;61.20;;;;;;;;5116578;28;8785;-81
2022/01/08 07:00:54;;;;;;;;;57.25;49.75;;;;;;;;5116847;28;8796;-81
2022/01/08 07:03:22;;;;;;;;;69.75;59.25;;;;;;;;5116477;28;8891;-81
2022/01/08 07:05:47;;;;;;;;;66.50;56.50;;;;;;;;5115958;27;8824;-81
2022/01/08 07:08:12;;;;;;;;;71.00;59.25;;;;;;;;5098084;28;8808;-81
2022/01/08 07:10:40;;;;;;;;;81.00;66.50;;;;;;;;5116787;28;8785;-81
2022/01/08 07:13:05;;;;;;;;;67.00;57.50;;;;;;;;5116059;28;8781;-81
2022/01/08 07:15:33;;;;;;;;;62.33;53.67;;;;;;;;5116810;28;8809;-81
2022/01/08 07:18:01;;;;;;;;;69.25;58.25;;;;;;;;5097842;28;8788;-81
2022/01/08 07:20:26;;;;;;;;;55.50;47.75;;;;;;;;5118225;28;8785;-81
2022/01/08 07:22:52;;;;;;;;;75.67;63.67;;;;;;;;5116102;28;8801;-80
2022/01/08 07:25:17;;;;;;;;;82.00;67.25;;;;;;;;5116139;28;9567;-81
2022/01/08 07:27:43;;;;;;;;;80.00;66.50;;;;;;;;5116151;28;8937;-80
2022/01/08 07:30:09;;;;;;;;;74.75;62.00;;;;;;;;5116274;28;8785;-76
2022/01/08 07:32:44;;;;;;;;;80.20;65.80;;;;;;;;5116492;28;8851;-77
2022/01/08 07:35:10;;;;;;;;;79.00;65.50;;;;;;;;5116154;28;8796;-80
2022/01/08 07:37:38;;;;;;;;;82.50;67.50;;;;;;;;5116253;28;8813;-80
2022/01/08 07:40:04;;;;;;;;;79.60;65.20;;;;;;;;5116047;28;9008;-80
2022/01/08 07:42:29;;;;;;;;;65.00;55.50;;;;;;;;5116160;28;8903;-80
2022/01/08 07:44:54;;;;;;;;;72.67;61.33;;;;;;;;5115815;28;8843;-80
2022/01/08 07:47:20;;;;;;;;;78.67;65.67;;;;;;;;5115895;28;8832;-80
2022/01/08 07:49:47;;;;;;;;;70.00;58.00;;;;;;;;5115878;28;8812;-80
2022/01/08 07:52:13;;;;;;;;;76.25;64.00;;;;;;;;5097172;28;8950;-80
2022/01/08 07:54:38;;;;;;;;;78.50;64.75;;;;;;;;5115319;28;11527;-80
2022/01/08 07:57:06;;;;;;;;;75.00;62.25;;;;;;;;5115623;28;8820;-80
2022/01/08 07:59:34;;;;;;;;;74.60;62.60;;;;;;;;5115972;28;8799;-78
2022/01/08 08:02:00;;;;;;;;;77.20;64.40;;;;;;;;5115720;28;8815;-79
2022/01/08 08:04:25;;;;;;;;;74.00;62.00;;;;;;;;5116026;28;8808;-79
2022/01/08 08:06:51;;;;;;;;;70.50;59.00;;;;;;;;5114913;27;9527;-78
2022/01/08 08:09:16;;;;;;;;;83.00;68.50;;;;;;;;5116361;28;8784;-78
2022/01/08 08:11:41;;;;;;;;;80.00;66.00;;;;;;;;5096942;28;8821;-78
2022/01/08 08:14:07;;;;;;;;;74.50;62.50;;;;;;;;5115955;28;8885;-79
2022/01/08 08:16:32;;;;;;;;;70.00;59.75;;;;;;;;5115657;28;8844;-79
2022/01/08 08:18:58;;;;;;;;;76.00;62.50;;;;;;;;5115519;28;8793;-78
2022/01/08 08:21:23;;;;;;;;;76.67;63.33;;;;;;;;5115158;28;8825;-78
2022/01/08 08:23:49;;;;;;;;;76.75;63.25;;;;;;;;5115223;28;8813;-79
2022/01/08 08:26:14;;;;;;;;;82.00;67.50;;;;;;;;5115499;28;8900;-79
2022/01/08 08:28:41;;;;;;;;;81.25;67.00;;;;;;;;5115533;28;9604;-79
2022/01/08 08:31:08;;;;;;;;;82.80;67.80;;;;;;;;5115464;28;8799;-79
2022/01/08 08:33:33;;;;;;;;;68.20;57.80;;;;;;;;5115678;28;8815;-79
2022/01/08 08:36:01;;;;;;;;;87.00;72.75;;;;;;;;5114696;28;9614;-79
2022/01/08 08:38:30;;;;;;;;;82.80;68.60;;;;;;;;5115635;28;10351;-79
2022/01/08 08:40:55;;;;;;;;;89.50;75.50;;;;;;;;5115002;28;8777;-79
2022/01/08 08:43:21;;;;;;;;;78.75;65.00;;;;;;;;5115507;28;8804;-79
2022/01/08 08:45:46;;;;;;;;;78.75;64.25;;;;;;;;5114738;28;8908;-79
2022/01/08 08:48:11;;;;;;;;;81.00;66.75;;;;;;;;5115241;28;8875;-79
2022/01/08 08:50:37;;;;;;;;;83.75;69.00;;;;;;;;5114514;28;8959;-79
2022/01/08 08:53:02;;;;;;;;;87.25;72.75;;;;;;;;5115075;28;8812;-79
2022/01/08 08:55:28;;;;;;;;;72.50;60.75;;;;;;;;5114895;28;8817;-79
2022/01/08 08:57:53;;;;;;;;;73.33;61.67;;;;;;;;5114455;28;8867;-79
2022/01/08 09:00:21;;;;;;;;;78.50;64.50;;;;;;;;5096786;28;8856;-80
2022/01/08 09:02:47;;;;;;;;;79.80;65.80;;;;;;;;5114522;28;8875;-80
2022/01/08 09:05:12;;;;;;;;;80.25;66.25;;;;;;;;5114465;27;8808;-81
2022/01/08 09:07:38;;;;;;;;;88.75;75.75;;;;;;;;5113661;28;8836;-81
2022/01/08 09:10:05;;;;;;;;;84.00;68.25;;;;;;;;5114468;28;11587;-80
2022/01/08 09:12:33;;;;;;;;;91.25;78.75;;;;;;;;5114802;28;9738;-80
2022/01/08 09:14:58;;;;;;;;;82.00;67.00;;;;;;;;5082713;28;8857;-80
2022/01/08 09:17:25;;;;;;;;;90.25;77.00;;;;;;;;5114647;28;8840;-80
2022/01/08 09:19:50;;;;;;;;;79.20;65.00;;;;;;;;5095556;28;8921;-80
2022/01/08 09:22:16;;;;;;;;;89.20;76.40;;;;;;;;5114324;28;8801;-80
2022/01/08 09:24:41;;;;;;;;;89.50;78.00;;;;;;;;5114393;28;8843;-81
2022/01/08 09:27:06;;;;;;;;;82.75;68.00;;;;;;;;5096089;28;8851;-80
2022/01/08 09:29:33;;;;;;;;;93.00;82.50;;;;;;;;5114453;28;11554;-80
2022/01/08 09:32:01;;;;;;;;;92.25;82.25;;;;;;;;5114134;28;8756;-81
2022/01/08 09:34:26;;;;;;;;;75.60;62.40;;;;;;;;5096028;28;8789;-80
2022/01/08 09:36:52;;;;;;;;;85.00;69.75;;;;;;;;5113511;28;9571;-80
2022/01/08 09:39:17;;;;;;;;;85.25;71.00;;;;;;;;5114437;28;8800;-80
2022/01/08 09:41:43;;;;;;;;;91.80;79.00;;;;;;;;5114046;28;8818;-80
2022/01/08 09:44:09;;;;;;;;;79.50;65.00;;;;;;;;5114254;28;8793;-80
2022/01/08 09:46:34;;;;;;;;;90.80;78.40;;;;;;;;5113964;28;8828;-80
2022/01/08 09:49:00;;;;;;;;;71.00;59.50;;;;;;;;5095307;28;10045;-81
2022/01/08 09:51:26;;;;;;;;;82.75;68.75;;;;;;;;5095218;28;8855;-81
2022/01/08 09:53:54;;;;;;;;;91.33;81.67;;;;;;;;5113531;28;8808;-81
2022/01/08 09:56:25;;;;;;;;;93.20;85.20;;;;;;;;5113794;28;10427;-81
2022/01/08 09:58:50;;;;;;;;;85.80;72.60;;;;;;;;5082323;28;8801;-80
2022/01/08 10:01:23;;;;;;;;;93.25;84.75;;;;;;;;5113954;28;11108;-81
2022/01/08 10:03:49;;;;;;;;;100.60;95.00;;;;;;;;5114402;28;8796;-80
2022/01/08 10:06:20;;;;;;;;;91.25;79.50;;;;;;;;5114229;27;8844;-80
2022/01/08 10:08:47;;;;;;;;;102.40;101.40;;;;;;;;5113760;28;8938;-80
2022/01/08 10:11:15;;;;;;;;;128.00;126.67;;;;;;;;5113794;28;8766;-80
2022/01/08 10:13:42;;;;;;;;;109.60;108.00;;;;;;;;5113729;28;8981;-80
2022/01/08 10:18:57;;;;;;;;;97.80;92.00;;;;;;;;5105838;28;8781;-80
2022/01/08 10:21:26;;;;;;;;;101.50;98.25;;;;;;;;5110839;28;11355;-78
2022/01/08 10:23:59;;;;;;;;;103.40;101.60;;;;;;;;5094642;28;8824;-78
2022/01/08 10:26:30;;;;;;;;;96.80;89.00;;;;;;;;5113622;28;8813;-78
2022/01/08 10:29:00;;;;;;;;;101.60;97.00;;;;;;;;5112887;28;11536;-77
2022/01/08 10:31:30;;;;;;;;;87.75;75.50;;;;;;;;5113827;28;8796;-78
2022/01/08 10:34:05;;;;;;;;;89.60;77.60;;;;;;;;5113025;28;8874;-78
2022/01/08 10:36:35;;;;;;;;;93.20;84.60;;;;;;;;5113269;28;10829;-78
2022/01/08 10:39:03;;;;;;;;;94.00;87.25;;;;;;;;5113030;28;10211;-77
2022/01/08 10:41:29;;;;;;;;;110.40;108.20;;;;;;;;5094904;28;9256;-78
2022/01/08 10:44:26;;;;;;;;;132.50;130.75;;;;;;;;5112771;28;8800;-78
2022/01/08 10:46:56;;;;;;;;;124.40;122.80;;;;;;;;5098376;28;10322;-79
2022/01/08 10:49:37;;;;;;;;;101.00;98.80;;;;;;;;5113414;28;8827;-77
2022/01/08 10:52:09;;;;;;;;;131.20;127.20;;;;;;;;5093967;28;8935;-79
2022/01/08 10:54:42;;;;;;;;;129.20;124.60;;;;;;;;5112858;28;11535;-78
2022/01/08 10:57:12;;;;;;;;;125.40;122.00;;;;;;;;5112703;28;8804;-78
2022/01/08 10:59:38;;;;;;;;;130.40;128.40;;;;;;;;5113173;28;8789;-79
2022/01/08 11:02:06;;;;;;;;;129.00;128.75;;;;;;;;5112980;28;8824;-78
2022/01/08 11:04:43;;;;;;;;;126.20;123.40;;;;;;;;5112240;27;8749;-78
2022/01/08 11:07:09;;;;;;;;;131.40;130.80;;;;;;;;5112821;28;10960;-78
2022/01/08 11:09:38;;;;;;;;;128.00;126.20;;;;;;;;5113121;28;9646;-81
2022/01/08 11:12:08;;;;;;;;;137.40;135.40;;;;;;;;5113161;28;8800;-81
2022/01/08 11:15:48;;;;;;;;;116.50;112.67;;;;;;;;5112821;28;8769;-80
2022/01/08 11:17:32;;;;;;;;;139.00;136.40;;;;;;;;5094110;28;8812;-81
2022/01/08 11:20:08;;;;;;;;;156.67;156.67;;;;;;;;5112589;28;8933;-82
2022/01/08 11:22:34;;;;;;;;;136.20;136.20;;;;;;;;5121485;28;8833;-82
2022/01/08 11:24:59;;;;;;;;;136.00;135.00;;;;;;;;5112230;28;8819;-80
2022/01/08 11:27:35;;;;;;;;;141.50;137.75;;;;;;;;5093764;28;8855;-81
2022/01/08 11:30:32;;;;;;;;;140.00;139.50;;;;;;;;5112602;28;9635;-82
2022/01/08 11:33:02;;;;;;;;;151.40;149.20;;;;;;;;5061028;28;8887;-82
2022/01/08 11:35:29;;;;;;;;;142.17;141.33;;;;;;;;5097159;28;8809;-83
2022/01/08 11:37:56;;;;;;;;;160.20;158.40;;;;;;;;5126596;27;8819;-82
2022/01/08 11:40:26;;;;;;;;;153.20;152.40;;;;;;;;5114988;28;9702;-82
2022/01/08 11:42:54;;;;;;;;;158.20;157.60;;;;;;;;5116075;28;8901;-82
2022/01/08 11:45:24;;;;;;;;;176.20;174.20;;;;;;;;5097212;28;8797;-83
2022/01/08 11:47:54;;;;;;;;;174.83;171.83;;;;;;;;5115522;28;8804;-83
2022/01/08 11:50:24;;;;;;;;;157.67;155.50;;;;;;;;5115286;28;8801;-82
2022/01/08 11:53:18;;;;;;;;;169.00;167.50;;;;;;;;5115936;28;8760;-82
2022/01/08 11:55:48;;;;;;;;;172.17;170.67;;;;;;;;5094329;28;8887;-82
2022/01/08 11:58:18;;;;;;;;;168.50;166.67;;;;;;;;5116441;28;8772;-83
2022/01/08 12:00:46;;;;;;;;;179.25;179.25;;;;;;;;5097025;28;8966;-82
2022/01/08 12:03:22;;;;;;;;;175.00;173.83;;;;;;;;5097606;28;8942;-83
2022/01/08 12:05:55;;;;;;;;;172.67;171.67;;;;;;;;5115330;27;8805;-82
2022/01/08 12:08:44;;;;;;;;;171.00;169.83;;;;;;;;5102396;28;8789;-82
2022/01/08 12:11:12;;;;;;;;;182.17;181.83;;;;;;;;5097081;28;8789;-84
2022/01/08 12:13:44;;;;;;;;;173.00;170.50;;;;;;;;5115441;28;8785;-83
2022/01/08 12:16:31;;;;;;;;;175.25;174.00;;;;;;;;5115988;28;8805;-84
2022/01/08 12:18:59;;;;;;;;;178.83;176.50;;;;;;;;5108892;28;11386;-84
2022/01/08 12:21:41;;;;;;;;;176.83;175.67;;;;;;;;5096355;28;8796;-83
2022/01/08 12:24:28;;;;;;;;;175.67;171.50;;;;;;;;5108871;28;8823;-84
2022/01/08 12:26:54;;;;;;;;;175.60;175.60;;;;;;;;5104415;28;8911;-85
2022/01/08 12:29:39;;;;;;;;;181.83;179.00;;;;;;;;5115395;28;9793;-84
2022/01/08 12:32:19;;;;;;;;;174.83;172.00;;;;;;;;5115550;28;8804;-84
2022/01/08 12:34:51;;;;;;;;;182.83;181.00;;;;;;;;5102543;28;8905;-85
2022/01/08 12:37:19;;;;;;;;;169.33;167.67;;;;;;;;5096573;28;8817;-85
2022/01/08 12:39:48;;;;;;;;;176.67;176.33;;;;;;;;5114884;28;8900;-84
2022/01/08 12:42:23;;;;;;;;;186.00;185.17;;;;;;;;5115090;28;8785;-84
2022/01/08 12:45:25;;;;;;;;;174.33;174.33;;;;;;;;5114840;28;8801;-84
2022/01/08 12:47:53;;;;;;;;;171.20;168.00;;;;;;;;5079849;28;8805;-85
2022/01/08 12:50:31;;;;;;;;;178.60;174.00;;;;;;;;5114740;28;8832;-85
2022/01/08 12:53:05;;;;;;;;;171.67;169.17;;;;;;;;5096040;28;11422;-83
2022/01/08 12:55:31;;;;;;;;;176.67;176.67;;;;;;;;5112186;28;8793;-82
2022/01/08 12:57:59;;;;;;;;;180.40;178.20;;;;;;;;5114057;28;8901;-85
2022/01/08 13:00:25;;;;;;;;;176.33;174.50;;;;;;;;5096444;28;8804;-83
2022/01/08 13:02:51;;;;;;;;;181.33;180.17;;;;;;;;5114518;28;8879;-83
2022/01/08 13:05:19;;;;;;;;;168.60;167.80;;;;;;;;5114504;27;9603;-83
2022/01/08 13:07:53;;;;;;;;;197.20;196.80;;;;;;;;5113881;28;8828;-81
2022/01/08 13:10:21;;;;;;;;;189.83;187.67;;;;;;;;5101984;28;8721;-82
2022/01/08 13:13:03;;;;;;;;;178.33;175.33;;;;;;;;5112893;28;8781;-83
2022/01/08 13:15:29;;;;;;;;;182.83;182.00;;;;;;;;5111289;28;9807;-84
2022/01/08 13:17:54;;;;;;;;;177.17;175.83;;;;;;;;5114159;28;9671;-84
2022/01/08 13:20:19;;;;;;;;;179.75;177.50;;;;;;;;5113419;28;8834;-81
2022/01/08 13:22:50;;;;;;;;;174.20;173.80;;;;;;;;5112437;28;8801;-81
2022/01/08 13:25:16;;;;;;;;;182.17;181.33;;;;;;;;5114811;28;8820;-82
2022/01/08 13:27:50;;;;;;;;;175.20;174.80;;;;;;;;5113457;28;8971;-83
2022/01/08 13:30:16;;;;;;;;;182.50;177.00;;;;;;;;5095616;28;9225;-83
2022/01/08 13:32:42;;;;;;;;;177.20;175.40;;;;;;;;5113707;28;8813;-81
2022/01/08 13:35:07;;;;;;;;;186.00;184.00;;;;;;;;5113806;28;11530;-82
2022/01/08 13:37:35;;;;;;;;;171.60;171.40;;;;;;;;5113537;28;8850;-83
2022/01/08 13:40:03;;;;;;;;;208.33;203.67;;;;;;;;5113276;28;8753;-83
2022/01/08 13:42:31;;;;;;;;;170.83;169.00;;;;;;;;5114309;27;8890;-83
2022/01/08 13:45:01;;;;;;;;;169.00;167.00;;;;;;;;5095213;28;8886;-83
2022/01/08 13:47:29;;;;;;;;;172.83;172.67;;;;;;;;5129615;27;8809;-83
2022/01/08 13:49:56;;;;;;;;;183.00;182.33;;;;;;;;5094784;28;8777;-82
2022/01/08 13:52:29;;;;;;;;;177.25;173.00;;;;;;;;5115093;27;8823;-83
2022/01/08 13:55:20;;;;;;;;;162.40;160.80;;;;;;;;5121885;27;9235;-84
2022/01/08 13:57:47;;;;;;;;;176.40;172.80;;;;;;;;5070992;27;8814;-85
2022/01/08 14:00:13;;;;;;;;;180.83;180.17;;;;;;;;5117778;27;11494;-83
2022/01/08 14:02:39;;;;;;;;;185.17;184.33;;;;;;;;5114559;27;8777;-81
2022/01/08 14:05:04;;;;;;;;;182.00;181.25;;;;;;;;5112795;27;8821;-84
2022/01/08 14:07:41;;;;;;;;;178.00;178.00;;;;;;;;5113710;28;8825;-81
2022/01/08 14:10:08;;;;;;;;;180.33;179.17;;;;;;;;5113365;28;8773;-82
2022/01/08 14:12:33;;;;;;;;;177.67;176.33;;;;;;;;5113770;28;9663;-80
2022/01/08 14:15:06;;;;;;;;;190.33;184.33;;;;;;;;5113168;28;9280;-80
2022/01/08 14:17:34;;;;;;;;;174.40;174.40;;;;;;;;5113940;28;8777;-80
2022/01/08 14:20:00;;;;;;;;;186.50;182.67;;;;;;;;5112439;28;8931;-79
2022/01/08 14:22:35;;;;;;;;;203.40;200.00;;;;;;;;5113594;28;8765;-83
2022/01/08 14:25:00;;;;;;;;;200.00;199.50;;;;;;;;5094426;28;8772;-82
2022/01/08 14:27:27;;;;;;;;;183.40;183.40;;;;;;;;5113366;28;8871;-80
2022/01/08 14:30:08;;;;;;;;;173.00;170.83;;;;;;;;5113355;28;8769;-81
2022/01/08 14:32:33;;;;;;;;;170.40;170.20;;;;;;;;5113727;28;8812;-83
2022/01/08 14:35:01;;;;;;;;;176.00;174.75;;;;;;;;5113044;28;8828;-84
2022/01/08 14:37:30;;;;;;;;;169.80;169.20;;;;;;;;5113786;28;9661;-83
2022/01/08 14:40:16;;;;;;;;;179.00;179.00;;;;;;;;5094754;28;9029;-83
2022/01/08 14:42:44;;;;;;;;;175.20;174.00;;;;;;;;5060279;28;8812;-83